sensor_id;sensor_type;location;lat;lon;timestamp;pressure;altitude;pressure_sealevel;temperature;humidity
14790;BME280;7486;51.010;10.366;2023-02-15T00:01:48;99740.09;;;-2.27;88.57
14790;BME280;7486;51.010;10.366;2023-02-15T00:04:18;99716.22;;;-2.48;88.35
14790;BME280;7486;51.010;10.366;2023-02-15T00:06:46;99743.91;;;-2.19;88.34
14790;BME280;7486;51.010;10.366;2023-02-15T00:09:12;99661.72;;;-2.78;87.71
14790;BME280;7486;51.010;10.366;2023-02-15T00:11:40;99639.50;;;-2.98;88.56
14790;BME280;7486;51.010;10.366;2023-02-15T00:14:09;99448.28;;;-3.82;87.94
14790;BME280;7486;51.010;10.366;2023-02-15T00:16:38;99434.25;;;-3.93;87.08
14790;BME280;7486;51.010;10.366;2023-02-15T00:19:11;99692.00;;;-2.19;86.89
14790;BME280;7486;51.010;10.366;2023-02-15T00:21:40;99626.63;;;-2.54;86.58
14790;BME280;7486;51.010;10.366;2023-02-15T00:24:09;99668.13;;;-1.96;86.04
14790;BME280;7486;51.010;10.366;2023-02-15T00:26:39;99405.44;;;-3.87;85.33
14790;BME280;7486;51.010;10.366;2023-02-15T00:29:06;99562.22;;;-2.91;84.81
14790;BME280;7486;51.010;10.366;2023-02-15T00:31:34;99729.03;;;-2.01;85.34
14790;BME280;7486;51.010;10.366;2023-02-15T00:34:09;99726.66;;;-1.90;85.73
14790;BME280;7486;51.010;10.366;2023-02-15T00:36:49;99725.91;;;-1.92;85.66
14790;BME280;7486;51.010;10.366;2023-02-15T00:39:24;99676.59;;;-2.22;84.77
14790;BME280;7486;51.010;10.366;2023-02-15T00:41:57;99711.81;;;-2.32;86.06
14790;BME280;7486;51.010;10.366;2023-02-15T00:44:30;99689.78;;;-2.55;86.07
14790;BME280;7486;51.010;10.366;2023-02-15T00:47:07;99710.09;;;-2.17;86.67
14790;BME280;7486;51.010;10.366;2023-02-15T00:49:50;99664.69;;;-2.10;86.23
14790;BME280;7486;51.010;10.366;2023-02-15T00:52:33;99723.63;;;-1.68;84.97
14790;BME280;7486;51.010;10.366;2023-02-15T00:55:07;99710.00;;;-1.58;84.03
14790;BME280;7486;51.010;10.366;2023-02-15T00:57:34;99715.53;;;-1.50;83.93
14790;BME280;7486;51.010;10.366;2023-02-15T01:00:01;99668.75;;;-1.64;83.16
14790;BME280;7486;51.010;10.366;2023-02-15T01:02:28;99643.78;;;-2.37;82.46
14790;BME280;7486;51.010;10.366;2023-02-15T01:04:55;99607.13;;;-2.47;83.89
14790;BME280;7486;51.010;10.366;2023-02-15T01:07:21;99712.84;;;-1.62;83.05
14790;BME280;7486;51.010;10.366;2023-02-15T01:09:48;99714.41;;;-1.74;82.33
14790;BME280;7486;51.010;10.366;2023-02-15T01:12:15;99570.66;;;-2.87;82.40
14790;BME280;7486;51.010;10.366;2023-02-15T01:14:42;99674.16;;;-2.09;82.44
14790;BME280;7486;51.010;10.366;2023-02-15T01:17:09;99643.13;;;-2.70;82.92
14790;BME280;7486;51.010;10.366;2023-02-15T01:19:37;99654.78;;;-2.48;83.54
14790;BME280;7486;51.010;10.366;2023-02-15T01:22:05;99608.31;;;-2.66;83.38
14790;BME280;7486;51.010;10.366;2023-02-15T01:24:34;99713.28;;;-1.98;82.98
14790;BME280;7486;51.010;10.366;2023-02-15T01:27:01;99546.34;;;-3.01;82.52
14790;BME280;7486;51.010;10.366;2023-02-15T01:29:29;99647.41;;;-2.25;82.66
14790;BME280;7486;51.010;10.366;2023-02-15T01:31:56;99692.97;;;-2.06;82.43
14790;BME280;7486;51.010;10.366;2023-02-15T01:34:24;99670.94;;;-2.28;82.26
14790;BME280;7486;51.010;10.366;2023-02-15T01:36:50;99617.63;;;-2.48;82.12
14790;BME280;7486;51.010;10.366;2023-02-15T01:39:17;99609.41;;;-2.26;82.24
14790;BME280;7486;51.010;10.366;2023-02-15T01:41:44;99637.84;;;-2.25;80.81
14790;BME280;7486;51.010;10.366;2023-02-15T01:47:22;99577.81;;;-2.77;80.75
14790;BME280;7486;51.010;10.366;2023-02-15T01:49:58;99476.03;;;-3.24;81.14
14790;BME280;7486;51.010;10.366;2023-02-15T01:52:26;99615.13;;;-2.35;81.09
14790;BME280;7486;51.010;10.366;2023-02-15T01:54:54;99600.34;;;-2.19;80.68
14790;BME280;7486;51.010;10.366;2023-02-15T01:57:23;99614.97;;;-2.04;79.93
14790;BME280;7486;51.010;10.366;2023-02-15T01:59:55;99540.50;;;-2.60;79.39
14790;BME280;7486;51.010;10.366;2023-02-15T02:02:23;99602.38;;;-2.10;79.67
14790;BME280;7486;51.010;10.366;2023-02-15T02:04:54;99437.16;;;-3.24;79.03
14790;BME280;7486;51.010;10.366;2023-02-15T02:07:27;99526.59;;;-2.73;79.18
14790;BME280;7486;51.010;10.366;2023-02-15T02:09:54;99598.72;;;-2.36;79.28
14790;BME280;7486;51.010;10.366;2023-02-15T02:12:23;99669.69;;;-2.07;80.08
14790;BME280;7486;51.010;10.366;2023-02-15T02:14:52;99515.88;;;-2.81;79.51
14790;BME280;7486;51.010;10.366;2023-02-15T02:28:54;99644.16;;;-2.29;78.98
14790;BME280;7486;51.010;10.366;2023-02-15T02:34:25;99636.06;;;-2.38;79.25
14790;BME280;7486;51.010;10.366;2023-02-15T02:39:56;99637.00;;;-2.39;80.65
14790;BME280;7486;51.010;10.366;2023-02-15T02:42:48;99540.19;;;-2.98;79.74
14790;BME280;7486;51.010;10.366;2023-02-15T02:45:27;99636.94;;;-2.24;80.14
14790;BME280;7486;51.010;10.366;2023-02-15T02:48:18;99527.06;;;-3.11;79.28
14790;BME280;7486;51.010;10.366;2023-02-15T02:50:48;99251.47;;;-4.70;79.65
14790;BME280;7486;51.010;10.366;2023-02-15T02:53:15;99563.38;;;-2.81;79.57
14790;BME280;7486;51.010;10.366;2023-02-15T02:55:44;99634.41;;;-2.54;79.47
14790;BME280;7486;51.010;10.366;2023-02-15T03:01:09;99626.63;;;-2.54;80.00
14790;BME280;7486;51.010;10.366;2023-02-15T03:03:43;99636.81;;;-2.51;79.71
14790;BME280;7486;51.010;10.366;2023-02-15T03:06:18;99627.88;;;-2.61;79.77
14790;BME280;7486;51.010;10.366;2023-02-15T03:08:48;99633.34;;;-2.65;79.42
14790;BME280;7486;51.010;10.366;2023-02-15T03:11:16;99513.06;;;-3.68;80.59
14790;BME280;7486;51.010;10.366;2023-02-15T03:13:44;99558.88;;;-3.38;80.64
14790;BME280;7486;51.010;10.366;2023-02-15T03:16:15;99588.47;;;-3.42;80.58
14790;BME280;7486;51.010;10.366;2023-02-15T03:18:54;99620.78;;;-3.18;81.34
14790;BME280;7486;51.010;10.366;2023-02-15T03:21:27;99448.72;;;-4.05;81.41
14790;BME280;7486;51.010;10.366;2023-02-15T03:24:24;99498.03;;;-3.77;81.35
14790;BME280;7486;51.010;10.366;2023-02-15T03:26:50;99504.38;;;-3.82;81.29
14790;BME280;7486;51.010;10.366;2023-02-15T03:29:20;99555.31;;;-3.52;81.51
14790;BME280;7486;51.010;10.366;2023-02-15T03:31:54;99515.66;;;-3.83;81.48
14790;BME280;7486;51.010;10.366;2023-02-15T03:34:24;99331.28;;;-5.12;81.86
14790;BME280;7486;51.010;10.366;2023-02-15T03:40:21;99504.47;;;-4.15;83.01
14790;BME280;7486;51.010;10.366;2023-02-15T03:43:02;99612.47;;;-3.55;83.41
14790;BME280;7486;51.010;10.366;2023-02-15T03:45:36;99614.44;;;-3.75;84.24
14790;BME280;7486;51.010;10.366;2023-02-15T03:48:05;99422.28;;;-4.90;84.18
14790;BME280;7486;51.010;10.366;2023-02-15T03:50:35;99431.50;;;-4.86;84.71
14790;BME280;7486;51.010;10.366;2023-02-15T03:53:06;99605.56;;;-3.87;84.45
14790;BME280;7486;51.010;10.366;2023-02-15T03:55:34;99584.13;;;-3.89;85.82
14790;BME280;7486;51.010;10.366;2023-02-15T03:58:03;99403.28;;;-5.06;85.18
14790;BME280;7486;51.010;10.366;2023-02-15T04:00:30;99535.69;;;-4.18;86.00
14790;BME280;7486;51.010;10.366;2023-02-15T04:03:19;99590.56;;;-3.65;85.58
14790;BME280;7486;51.010;10.366;2023-02-15T04:05:49;99506.03;;;-4.13;85.33
14790;BME280;7486;51.010;10.366;2023-02-15T04:08:15;99568.13;;;-3.64;85.22
14790;BME280;7486;51.010;10.366;2023-02-15T04:10:42;99497.03;;;-4.06;84.99
14790;BME280;7486;51.010;10.366;2023-02-15T04:13:09;99477.16;;;-4.36;84.87
14790;BME280;7486;51.010;10.366;2023-02-15T04:15:36;99376.50;;;-4.72;85.11
14790;BME280;7486;51.010;10.366;2023-02-15T04:18:03;99417.50;;;-4.49;84.65
14790;BME280;7486;51.010;10.366;2023-02-15T04:20:29;99517.75;;;-3.74;84.53
14790;BME280;7486;51.010;10.366;2023-02-15T04:22:56;99541.38;;;-3.65;84.24
14790;BME280;7486;51.010;10.366;2023-02-15T04:25:23;99429.38;;;-4.62;84.31
14790;BME280;7486;51.010;10.366;2023-02-15T04:27:52;99226.75;;;-5.86;84.04
14790;BME280;7486;51.010;10.366;2023-02-15T04:30:22;99585.47;;;-3.51;84.69
14790;BME280;7486;51.010;10.366;2023-02-15T04:32:49;99532.78;;;-3.81;84.73
14790;BME280;7486;51.010;10.366;2023-02-15T04:35:15;99537.78;;;-3.47;84.69
14790;BME280;7486;51.010;10.366;2023-02-15T04:37:43;99584.19;;;-3.12;84.49
14790;BME280;7486;51.010;10.366;2023-02-15T04:40:12;99581.25;;;-3.06;83.45
14790;BME280;7486;51.010;10.366;2023-02-15T04:42:39;99396.28;;;-4.24;83.30
14790;BME280;7486;51.010;10.366;2023-02-15T04:45:07;99379.88;;;-4.70;83.58
14790;BME280;7486;51.010;10.366;2023-02-15T04:47:34;99226.16;;;-5.91;85.14
14790;BME280;7486;51.010;10.366;2023-02-15T04:50:00;99555.56;;;-3.72;85.88
14790;BME280;7486;51.010;10.366;2023-02-15T04:52:27;99448.22;;;-4.12;85.30
14790;BME280;7486;51.010;10.366;2023-02-15T04:54:54;99479.56;;;-4.18;85.17
14790;BME280;7486;51.010;10.366;2023-02-15T04:57:21;99517.72;;;-4.21;85.16
14790;BME280;7486;51.010;10.366;2023-02-15T04:59:48;99502.69;;;-4.30;86.49
14790;BME280;7486;51.010;10.366;2023-02-15T05:02:14;99271.66;;;-5.73;86.07
14790;BME280;7486;51.010;10.366;2023-02-15T05:04:41;99543.44;;;-4.03;87.54
14790;BME280;7486;51.010;10.366;2023-02-15T05:07:08;99367.84;;;-4.87;86.70
14790;BME280;7486;51.010;10.366;2023-02-15T05:09:35;99485.34;;;-3.97;86.57
14790;BME280;7486;51.010;10.366;2023-02-15T05:12:02;99466.06;;;-4.07;85.49
14790;BME280;7486;51.010;10.366;2023-02-15T05:14:28;99477.75;;;-4.16;85.71
14790;BME280;7486;51.010;10.366;2023-02-15T05:16:55;99526.84;;;-3.99;86.12
14790;BME280;7486;51.010;10.366;2023-02-15T05:19:22;99442.00;;;-4.56;85.94
14790;BME280;7486;51.010;10.366;2023-02-15T05:21:49;99210.91;;;-5.79;85.95
14790;BME280;7486;51.010;10.366;2023-02-15T05:24:16;99173.03;;;-6.28;85.27
14790;BME280;7486;51.010;10.366;2023-02-15T05:26:42;99475.75;;;-4.92;87.65
14790;BME280;7486;51.010;10.366;2023-02-15T05:29:10;99095.28;;;-7.05;88.07
14790;BME280;7486;51.010;10.366;2023-02-15T05:31:37;99549.63;;;-4.05;87.47
14790;BME280;7486;51.010;10.366;2023-02-15T05:34:04;99543.94;;;-4.12;86.83
14790;BME280;7486;51.010;10.366;2023-02-15T05:36:31;99506.81;;;-4.59;87.34
14790;BME280;7486;51.010;10.366;2023-02-15T05:38:58;99483.84;;;-4.32;87.25
14790;BME280;7486;51.010;10.366;2023-02-15T05:41:24;99400.34;;;-4.83;86.84
14790;BME280;7486;51.010;10.366;2023-02-15T05:43:51;99547.03;;;-3.89;86.80
14790;BME280;7486;51.010;10.366;2023-02-15T05:46:18;99469.66;;;-4.25;86.08
14790;BME280;7486;51.010;10.366;2023-02-15T05:48:45;99417.00;;;-4.56;86.33
14790;BME280;7486;51.010;10.366;2023-02-15T05:51:12;99546.97;;;-3.72;86.05
14790;BME280;7486;51.010;10.366;2023-02-15T05:53:40;99432.44;;;-4.38;85.77
14790;BME280;7486;51.010;10.366;2023-02-15T05:56:09;99548.31;;;-3.50;85.34
14790;BME280;7486;51.010;10.366;2023-02-15T05:58:40;99550.31;;;-3.86;84.82
14790;BME280;7486;51.010;10.366;2023-02-15T06:01:13;99550.03;;;-4.13;85.69
14790;BME280;7486;51.010;10.366;2023-02-15T06:03:41;99489.00;;;-4.65;87.21
14790;BME280;7486;51.010;10.366;2023-02-15T06:06:07;99502.38;;;-4.90;88.09
14790;BME280;7486;51.010;10.366;2023-02-15T06:08:35;99441.91;;;-5.20;88.67
14790;BME280;7486;51.010;10.366;2023-02-15T06:11:02;99545.75;;;-4.29;87.92
14790;BME280;7486;51.010;10.366;2023-02-15T06:13:29;99452.53;;;-5.09;88.73
14790;BME280;7486;51.010;10.366;2023-02-15T06:15:56;99554.91;;;-4.39;88.78
14790;BME280;7486;51.010;10.366;2023-02-15T06:18:23;99485.63;;;-4.83;88.76
14790;BME280;7486;51.010;10.366;2023-02-15T06:20:49;99185.25;;;-6.49;88.21
14790;BME280;7486;51.010;10.366;2023-02-15T06:23:17;99444.19;;;-5.14;88.31
14790;BME280;7486;51.010;10.366;2023-02-15T06:25:45;99558.06;;;-4.34;88.83
14790;BME280;7486;51.010;10.366;2023-02-15T06:28:13;99556.47;;;-4.04;88.58
14790;BME280;7486;51.010;10.366;2023-02-15T06:30:40;99367.69;;;-5.34;87.58
14790;BME280;7486;51.010;10.366;2023-02-15T06:33:07;99455.91;;;-4.59;87.48
14790;BME280;7486;51.010;10.366;2023-02-15T06:35:33;99463.88;;;-4.79;87.57
14790;BME280;7486;51.010;10.366;2023-02-15T06:38:00;99562.66;;;-3.75;87.69
14790;BME280;7486;51.010;10.366;2023-02-15T06:40:26;99576.72;;;-3.64;87.05
14790;BME280;7486;51.010;10.366;2023-02-15T06:42:53;99461.28;;;-4.30;85.39
14790;BME280;7486;51.010;10.366;2023-02-15T06:45:20;99573.31;;;-4.28;87.24
14790;BME280;7486;51.010;10.366;2023-02-15T06:47:47;99523.09;;;-4.41;86.99
14790;BME280;7486;51.010;10.366;2023-02-15T06:50:13;99453.88;;;-4.85;87.89
14790;BME280;7486;51.010;10.366;2023-02-15T06:52:40;99032.88;;;-7.44;87.11
14790;BME280;7486;51.010;10.366;2023-02-15T06:55:07;99450.91;;;-4.94;87.82
14790;BME280;7486;51.010;10.366;2023-02-15T06:57:34;99555.41;;;-4.33;87.82
14790;BME280;7486;51.010;10.366;2023-02-15T07:00:00;99307.09;;;-5.60;87.70
14790;BME280;7486;51.010;10.366;2023-02-15T07:02:27;99551.81;;;-3.82;87.38
14790;BME280;7486;51.010;10.366;2023-02-15T07:04:54;99455.69;;;-4.54;86.56
14790;BME280;7486;51.010;10.366;2023-02-15T07:07:21;99496.19;;;-4.22;86.32
14790;BME280;7486;51.010;10.366;2023-02-15T07:09:48;99547.03;;;-3.89;85.82
14790;BME280;7486;51.010;10.366;2023-02-15T07:12:15;99479.66;;;-4.19;86.19
14790;BME280;7486;51.010;10.366;2023-02-15T07:14:42;99221.34;;;-5.82;85.72
14790;BME280;7486;51.010;10.366;2023-02-15T07:17:08;99483.50;;;-4.26;86.39
14790;BME280;7486;51.010;10.366;2023-02-15T07:19:55;99485.00;;;-4.22;85.76
14790;BME280;7486;51.010;10.366;2023-02-15T07:22:22;99245.50;;;-5.83;85.59
14790;BME280;7486;51.010;10.366;2023-02-15T07:24:49;99512.53;;;-4.21;86.83
14790;BME280;7486;51.010;10.366;2023-02-15T07:27:15;99552.41;;;-3.77;86.86
14790;BME280;7486;51.010;10.366;2023-02-15T07:29:42;99451.19;;;-4.35;87.49
14790;BME280;7486;51.010;10.366;2023-02-15T07:32:09;99441.38;;;-4.28;86.73
14790;BME280;7486;51.010;10.366;2023-02-15T07:34:35;99440.41;;;-4.59;86.15
14790;BME280;7486;51.010;10.366;2023-02-15T07:37:02;99276.69;;;-5.55;87.09
14790;BME280;7486;51.010;10.366;2023-02-15T07:39:29;99482.59;;;-4.25;87.69
14790;BME280;7486;51.010;10.366;2023-02-15T07:41:56;99528.09;;;-3.90;88.19
14790;BME280;7486;51.010;10.366;2023-02-15T07:44:29;99514.16;;;-4.03;88.79
14790;BME280;7486;51.010;10.366;2023-02-15T07:46:56;99495.22;;;-3.88;88.32
14790;BME280;7486;51.010;10.366;2023-02-15T07:49:23;99498.63;;;-3.87;87.88
14790;BME280;7486;51.010;10.366;2023-02-15T07:51:51;99449.38;;;-4.17;88.35
14790;BME280;7486;51.010;10.366;2023-02-15T07:54:19;99548.53;;;-3.38;87.70
14790;BME280;7486;51.010;10.366;2023-02-15T07:57:04;99406.47;;;-4.21;88.02
14790;BME280;7486;51.010;10.366;2023-02-15T07:59:49;99554.47;;;-3.36;86.88
14790;BME280;7486;51.010;10.366;2023-02-15T08:02:17;99432.69;;;-4.27;88.58
14790;BME280;7486;51.010;10.366;2023-02-15T08:04:44;99252.81;;;-4.94;88.23
14790;BME280;7486;51.010;10.366;2023-02-15T08:07:11;99539.84;;;-3.08;87.43
14790;BME280;7486;51.010;10.366;2023-02-15T08:09:39;99430.03;;;-3.65;87.46
14790;BME280;7486;51.010;10.366;2023-02-15T08:12:07;99538.63;;;-2.86;87.28
14790;BME280;7486;51.010;10.366;2023-02-15T08:14:36;99532.41;;;-2.98;86.27
14790;BME280;7486;51.010;10.366;2023-02-15T08:17:03;99425.94;;;-3.69;86.66
14790;BME280;7486;51.010;10.366;2023-02-15T08:19:31;99545.13;;;-2.79;86.40
14790;BME280;7486;51.010;10.366;2023-02-15T08:22:01;99438.34;;;-3.44;85.38
14790;BME280;7486;51.010;10.366;2023-02-15T08:24:30;99515.34;;;-3.02;86.12
14790;BME280;7486;51.010;10.366;2023-02-15T08:26:58;99385.97;;;-3.79;86.68
14790;BME280;7486;51.010;10.366;2023-02-15T08:29:27;99479.59;;;-3.11;86.09
14790;BME280;7486;51.010;10.366;2023-02-15T08:32:01;99537.66;;;-2.41;85.18
14790;BME280;7486;51.010;10.366;2023-02-15T08:34:31;99525.06;;;-2.19;85.43
14790;BME280;7486;51.010;10.366;2023-02-15T08:36:58;99403.53;;;-2.82;84.72
14790;BME280;7486;51.010;10.366;2023-02-15T08:39:25;99410.00;;;-2.89;84.12
14790;BME280;7486;51.010;10.366;2023-02-15T08:41:51;99459.94;;;-2.57;84.64
14790;BME280;7486;51.010;10.366;2023-02-15T08:44:19;99518.91;;;-1.90;83.93
14790;BME280;7486;51.010;10.366;2023-02-15T08:46:48;99519.72;;;-1.75;82.81
14790;BME280;7486;51.010;10.366;2023-02-15T08:49:17;99505.66;;;-1.59;82.24
14790;BME280;7486;51.010;10.366;2023-02-15T08:51:45;99073.53;;;-4.05;81.04
14790;BME280;7486;51.010;10.366;2023-02-15T08:54:14;99340.44;;;-2.27;80.70
14790;BME280;7486;51.010;10.366;2023-02-15T08:56:42;99446.63;;;-1.57;80.17
14790;BME280;7486;51.010;10.366;2023-02-15T08:59:21;99510.78;;;-1.05;79.31
14790;BME280;7486;51.010;10.366;2023-02-15T09:01:49;99450.41;;;-1.35;80.40
14790;BME280;7486;51.010;10.366;2023-02-15T09:04:17;99224.28;;;-2.63;79.85
14790;BME280;7486;51.010;10.366;2023-02-15T09:06:46;99490.31;;;-0.97;79.76
14790;BME280;7486;51.010;10.366;2023-02-15T09:09:16;98872.06;;;-4.79;80.34
14790;BME280;7486;51.010;10.366;2023-02-15T09:11:45;99495.31;;;-0.81;79.77
14790;BME280;7486;51.010;10.366;2023-02-15T09:14:16;99424.22;;;-1.32;79.27
14790;BME280;7486;51.010;10.366;2023-02-15T09:16:47;99500.84;;;-0.61;79.97
14790;BME280;7486;51.010;10.366;2023-02-15T09:19:51;99498.75;;;-0.43;78.81
14790;BME280;7486;51.010;10.366;2023-02-15T09:22:30;99477.13;;;-0.56;77.78
14790;BME280;7486;51.010;10.366;2023-02-15T09:24:59;99329.69;;;-1.57;77.84
14790;BME280;7486;51.010;10.366;2023-02-15T09:27:26;99509.78;;;-0.40;76.93
14790;BME280;7486;51.010;10.366;2023-02-15T09:29:55;99466.59;;;-1.05;77.55
14790;BME280;7486;51.010;10.366;2023-02-15T09:32:24;99509.06;;;-0.67;77.54
14790;BME280;7486;51.010;10.366;2023-02-15T09:34:54;99507.72;;;-0.60;78.54
14790;BME280;7486;51.010;10.366;2023-02-15T09:37:26;99401.16;;;-1.12;78.03
14790;BME280;7486;51.010;10.366;2023-02-15T09:39:55;99512.28;;;-0.51;77.00
14790;BME280;7486;51.010;10.366;2023-02-15T09:42:26;99509.16;;;-0.30;76.63
14790;BME280;7486;51.010;10.366;2023-02-15T09:47:48;99505.19;;;-0.23;76.67
14790;BME280;7486;51.010;10.366;2023-02-15T09:56:19;99488.63;;;0.50;75.38
14790;BME280;7486;51.010;10.366;2023-02-15T10:05:08;99272.22;;;-0.42;72.95
14790;BME280;7486;51.010;10.366;2023-02-15T10:08:20;99472.19;;;0.96;72.63
14790;BME280;7486;51.010;10.366;2023-02-15T10:23:40;99342.81;;;0.71;70.23
14790;BME280;7486;51.010;10.366;2023-02-15T10:29:02;99459.13;;;1.53;68.73
14790;BME280;7486;51.010;10.366;2023-02-15T10:37:49;99446.78;;;1.88;68.35
14790;BME280;7486;51.010;10.366;2023-02-15T10:49:08;99444.38;;;1.85;68.10
14790;BME280;7486;51.010;10.366;2023-02-15T10:52:02;99439.41;;;1.82;67.26
14790;BME280;7486;51.010;10.366;2023-02-15T10:57:23;99427.56;;;2.21;65.25
14790;BME280;7486;51.010;10.366;2023-02-15T11:08:03;99417.13;;;2.21;66.71
14790;BME280;7486;51.010;10.366;2023-02-15T11:10:38;99409.13;;;2.54;65.49
14790;BME280;7486;51.010;10.366;2023-02-15T11:13:11;99328.41;;;2.08;65.00
14790;BME280;7486;51.010;10.366;2023-02-15T11:15:59;99390.41;;;2.70;64.42
14790;BME280;7486;51.010;10.366;2023-02-15T11:18:38;99348.38;;;2.30;64.36
14790;BME280;7486;51.010;10.366;2023-02-15T11:23:43;99404.63;;;2.56;64.63
14790;BME280;7486;51.010;10.366;2023-02-15T11:26:19;99406.25;;;2.57;65.87
14790;BME280;7486;51.010;10.366;2023-02-15T11:28:53;99397.34;;;2.81;65.78
14790;BME280;7486;51.010;10.366;2023-02-15T11:31:23;99393.38;;;2.65;65.56
14790;BME280;7486;51.010;10.366;2023-02-15T11:33:57;99393.59;;;2.74;65.80
14790;BME280;7486;51.010;10.366;2023-02-15T11:36:36;99385.72;;;2.94;64.88
14790;BME280;7486;51.010;10.366;2023-02-15T11:39:11;99381.16;;;3.17;65.24
14790;BME280;7486;51.010;10.366;2023-02-15T11:41:50;99385.19;;;3.21;65.10
14790;BME280;7486;51.010;10.366;2023-02-15T11:44:35;99388.25;;;3.05;65.25
14790;BME280;7486;51.010;10.366;2023-02-15T11:47:10;99395.75;;;3.20;66.02
14790;BME280;7486;51.010;10.366;2023-02-15T11:49:38;99353.34;;;2.95;65.59
14790;BME280;7486;51.010;10.366;2023-02-15T11:52:06;99395.25;;;3.26;65.19
14790;BME280;7486;51.010;10.366;2023-02-15T11:54:35;99388.91;;;2.98;65.60
14790;BME280;7486;51.010;10.366;2023-02-15T11:57:15;99391.34;;;2.90;66.39
14790;BME280;7486;51.010;10.366;2023-02-15T11:59:50;99346.09;;;2.78;66.48
14790;BME280;7486;51.010;10.366;2023-02-15T12:02:21;99391.66;;;3.27;64.87
14790;BME280;7486;51.010;10.366;2023-02-15T12:04:56;99383.31;;;3.12;64.58
14790;BME280;7486;51.010;10.366;2023-02-15T12:07:26;99379.72;;;3.03;65.69
14790;BME280;7486;51.010;10.366;2023-02-15T12:12:27;99381.19;;;3.27;65.38
14790;BME280;7486;51.010;10.366;2023-02-15T12:14:56;99376.75;;;3.38;64.33
14790;BME280;7486;51.010;10.366;2023-02-15T12:17:26;99380.44;;;3.36;65.58
14790;BME280;7486;51.010;10.366;2023-02-15T12:20:00;99371.16;;;3.62;65.06
14790;BME280;7486;51.010;10.366;2023-02-15T12:22:31;99364.53;;;3.58;63.63
14790;BME280;7486;51.010;10.366;2023-02-15T12:25:00;99368.53;;;3.52;62.34
14790;BME280;7486;51.010;10.366;2023-02-15T12:27:30;99375.59;;;3.31;64.08
14790;BME280;7486;51.010;10.366;2023-02-15T12:30:00;99379.03;;;3.72;64.23
14790;BME280;7486;51.010;10.366;2023-02-15T12:32:34;99374.06;;;3.59;62.29
14790;BME280;7486;51.010;10.366;2023-02-15T12:37:35;99366.94;;;3.40;63.55
14790;BME280;7486;51.010;10.366;2023-02-15T12:40:28;99362.66;;;3.39;63.91
14790;BME280;7486;51.010;10.366;2023-02-15T12:42:57;99369.31;;;3.53;63.77
14790;BME280;7486;51.010;10.366;2023-02-15T12:48:18;99352.84;;;3.91;62.00
14790;BME280;7486;51.010;10.366;2023-02-15T12:50:51;99345.16;;;3.80;62.76
14790;BME280;7486;51.010;10.366;2023-02-15T12:53:32;99352.84;;;3.72;62.22
14790;BME280;7486;51.010;10.366;2023-02-15T13:01:09;99346.34;;;3.66;62.99
14790;BME280;7486;51.010;10.366;2023-02-15T13:03:55;99351.53;;;3.47;62.88
14790;BME280;7486;51.010;10.366;2023-02-15T13:06:23;99352.34;;;3.38;63.00
14790;BME280;7486;51.010;10.366;2023-02-15T13:08:52;99357.78;;;3.25;62.93
14790;BME280;7486;51.010;10.366;2023-02-15T13:11:24;99352.88;;;3.32;63.86
14790;BME280;7486;51.010;10.366;2023-02-15T13:18:57;99345.44;;;3.46;63.81
14790;BME280;7486;51.010;10.366;2023-02-15T13:21:30;99334.50;;;3.81;62.85
14790;BME280;7486;51.010;10.366;2023-02-15T13:24:05;99351.34;;;3.98;61.99
14790;BME280;7486;51.010;10.366;2023-02-15T13:26:34;99350.50;;;3.69;60.95
14790;BME280;7486;51.010;10.366;2023-02-15T13:29:28;99350.78;;;3.75;62.74
14790;BME280;7486;51.010;10.366;2023-02-15T13:32:07;99356.56;;;3.79;62.70
14790;BME280;7486;51.010;10.366;2023-02-15T13:34:39;99337.56;;;3.96;62.44
14790;BME280;7486;51.010;10.366;2023-02-15T13:37:20;99357.31;;;4.19;60.66
14790;BME280;7486;51.010;10.366;2023-02-15T13:42:36;99344.19;;;4.00;61.25
14790;BME280;7486;51.010;10.366;2023-02-15T13:55:57;99343.38;;;3.99;61.29
14790;BME280;7486;51.010;10.366;2023-02-15T13:58:41;99331.78;;;4.21;62.59
14790;BME280;7486;51.010;10.366;2023-02-15T14:06:48;99325.94;;;4.65;60.14
14790;BME280;7486;51.010;10.366;2023-02-15T14:09:35;99292.41;;;4.50;59.49
14790;BME280;7486;51.010;10.366;2023-02-15T14:17:56;99298.38;;;3.65;62.39
14790;BME280;7486;51.010;10.366;2023-02-15T14:31:34;99278.91;;;3.68;63.01
14790;BME280;7486;51.010;10.366;2023-02-15T14:34:03;99292.28;;;3.55;63.06
14790;BME280;7486;51.010;10.366;2023-02-15T14:36:30;99286.03;;;3.47;63.02
14790;BME280;7486;51.010;10.366;2023-02-15T14:41:57;99271.47;;;3.14;64.38
14790;BME280;7486;51.010;10.366;2023-02-15T14:44:33;99290.31;;;3.38;64.90
14790;BME280;7486;51.010;10.366;2023-02-15T14:47:08;99285.38;;;3.45;63.63
14790;BME280;7486;51.010;10.366;2023-02-15T14:49:39;99291.25;;;3.37;64.20
14790;BME280;7486;51.010;10.366;2023-02-15T14:52:09;99290.91;;;3.61;64.08
14790;BME280;7486;51.010;10.366;2023-02-15T14:59:46;99282.09;;;3.22;63.76
14790;BME280;7486;51.010;10.366;2023-02-15T15:02:19;99279.34;;;3.24;64.65
14790;BME280;7486;51.010;10.366;2023-02-15T15:05:07;99288.03;;;3.24;64.46
14790;BME280;7486;51.010;10.366;2023-02-15T15:12:51;99290.31;;;3.38;63.62
14790;BME280;7486;51.010;10.366;2023-02-15T15:17:56;99285.38;;;3.54;62.59
14790;BME280;7486;51.010;10.366;2023-02-15T15:25:57;99287.03;;;3.55;62.28
14790;BME280;7486;51.010;10.366;2023-02-15T15:43:19;99272.06;;;3.27;62.95
14790;BME280;7486;51.010;10.366;2023-02-15T15:48:34;99270.50;;;2.85;64.33
14790;BME280;7486;51.010;10.366;2023-02-15T15:51:31;99265.09;;;3.07;63.72
14790;BME280;7486;51.010;10.366;2023-02-15T15:54:00;99256.53;;;3.05;64.62
14790;BME280;7486;51.010;10.366;2023-02-15T15:56:32;99258.84;;;2.89;63.99
14790;BME280;7486;51.010;10.366;2023-02-15T15:59:06;99259.28;;;2.63;64.40
14790;BME280;7486;51.010;10.366;2023-02-15T16:01:44;99257.88;;;2.59;65.16
14790;BME280;7486;51.010;10.366;2023-02-15T16:04:14;99249.63;;;2.64;65.16
14790;BME280;7486;51.010;10.366;2023-02-15T16:06:48;99249.25;;;2.69;64.59
14790;BME280;7486;51.010;10.366;2023-02-15T16:09:23;99260.78;;;2.56;64.70
14790;BME280;7486;51.010;10.366;2023-02-15T16:11:52;99262.25;;;2.29;65.38
14790;BME280;7486;51.010;10.366;2023-02-15T16:14:35;99264.59;;;2.11;65.93
14790;BME280;7486;51.010;10.366;2023-02-15T16:17:06;99260.47;;;2.08;66.02
14790;BME280;7486;51.010;10.366;2023-02-15T16:19:38;99264.09;;;2.17;66.71
14790;BME280;7486;51.010;10.366;2023-02-15T16:22:11;99252.88;;;2.26;66.82